Xun Long 5 — BYGW — position and weather

sailwx.info

Track history (hours):
 
Tides and Currents Weather Stations Pressure Air Temp Water Temp Dewpoint Dewpoint Depression Visibility Wind Speed Wind Dir Waves Ship Positions

Xun Long 5

Last reported at 2016-May-30 00:33 UTC. Time now 2016-May-30 01:02 UTC.
Position N 22°29' E 113°55'.

Length 34 m; draft 1.4 m.

Type: High speed craft. MMSI: 413471870.

Date/timePositionNaut miles runAvg speedWind from/ knotsBaromVisibWave heightAir tempDewpointWater temp
2016-May-30 00:33N 22°29' E 113°55'0 0.0
2016-May-29 23:33N 22°29' E 113°55'0 0.0
2016-May-29 22:33N 22°29' E 113°55'0 0.0
2016-May-29 21:27N 22°29' E 113°55'0 0.0
2016-May-29 20:33N 22°29' E 113°55'0 0.0
2016-May-29 19:21N 22°29' E 113°55'0 0.0
2016-May-29 18:33N 22°29' E 113°55'0 0.0
2016-May-29 16:21N 22°29' E 113°55'0 0.0
2016-May-29 15:15N 22°29' E 113°55'0 0.0
2016-May-29 14:33N 22°29' E 113°55'26 8.5
2016-May-29 11:32N 22°12' E 113°34'1313.3
2016-May-29 10:33N 22°18' E 113°46'1313.2
2016-May-29 09:34N 22°28' E 113°55'18 8.8
2016-May-29 07:33N 22°15' E 113°43'1817.6
2016-May-29 06:33N 22°29' E 113°55'1312.1
2016-May-29 05:30N 22°20' E 114°05'10 9.0
2016-May-29 04:26N 22°22' E 113°55'1511.8
2016-May-29 03:07N 22°13' E 113°42'5 6.5
2016-May-29 02:17N 22°10' E 113°37'2026.5
2016-May-29 01:31N 22°24' E 113°52'5 2.4
2016-May-28 23:28N 22°29' E 113°55'0 0.0
2016-May-28 22:27N 22°29' E 113°55'0 0.0
2016-May-28 21:21N 22°29' E 113°55'0 0.0
2016-May-28 20:28N 22°29' E 113°55'0 0.0
2016-May-28 19:34N 22°29' E 113°55'0 0.0
2016-May-28 18:04N 22°29' E 113°55'0 0.0
2016-May-28 17:33N 22°29' E 113°55'0 0.0
2016-May-28 16:33N 22°29' E 113°55'0 0.0
2016-May-28 15:33N 22°29' E 113°55'0 0.0
2016-May-28 14:33N 22°29' E 113°55'2316.6
2016-May-28 13:10N 22°11' E 113°38'2 2.4
2016-May-28 12:31N 22°11' E 113°37'2525.4
2016-May-28 11:33N 22°29' E 113°55'2620.2
2016-May-28 10:17N 22°11' E 113°35'7 9.4
2016-May-28 09:33N 22°13' E 113°42'2019.7
2016-May-28 08:33N 22°29' E 113°55'0 0.0
2016-May-28 06:33N 22°29' E 113°55'0 0.0
2016-May-28 05:27N 22°29' E 113°55'0 0.0
2016-May-28 04:27N 22°29' E 113°55'0 0.0
2016-May-28 03:33N 22°29' E 113°55'25 1.7
2016-May-27 13:19N 22°11' E 113°36'3 0.9
2016-May-27 10:11N 22°12' E 113°34'3 0.5
2016-May-27 04:09N 22°10' E 113°36'3 0.1
2016-May-25 13:20N 22°12' E 113°34'4 0.6
2016-May-25 06:32N 22°10' E 113°37'2 0.9
2016-May-25 04:06N 22°10' E 113°35'  
2016-May-21 13:18N 22°12' E 113°34'4 0.7
2016-May-21 07:17N 22°12' E 113°38'1 0.2
2016-May-21 04:19N 22°12' E 113°38'0 0.5
2016-May-21 03:34N 22°11' E 113°38'4 0.3
2016-May-20 13:19N 22°12' E 113°34'0 0.1
2016-May-20 10:03N 22°12' E 113°34'4 1.2
2016-May-20 06:33N 22°11' E 113°38'4 1.8
2016-May-20 04:25N 22°15' E 113°38'3 0.9
2016-May-20 01:03N 22°12' E 113°38'  
Track history (hours):
 
Tides and Currents Weather Stations Pressure Air Temp Water Temp Dewpoint Dewpoint Depression Visibility Wind Speed Wind Dir Waves Ship Positions

Xun Long 5

Last reported at 2016-May-30 00:33 UTC. Time now 2016-May-30 01:02 UTC.
Position N 22°29' E 113°55'.

Length 34 m; draft 1.4 m.

Type: High speed craft. MMSI: 413471870.

Date/timePositionNaut miles runAvg speedWind from/ knotsBaromVisibWave heightAir tempDewpointWater temp
2016-May-30 00:33N 22°29' E 113°55'0 0.0
2016-May-29 23:33N 22°29' E 113°55'0 0.0
2016-May-29 22:33N 22°29' E 113°55'0 0.0
2016-May-29 21:27N 22°29' E 113°55'0 0.0
2016-May-29 20:33N 22°29' E 113°55'0 0.0
2016-May-29 19:21N 22°29' E 113°55'0 0.0
2016-May-29 18:33N 22°29' E 113°55'0 0.0
2016-May-29 16:21N 22°29' E 113°55'0 0.0
2016-May-29 15:15N 22°29' E 113°55'0 0.0
2016-May-29 14:33N 22°29' E 113°55'26 8.5
2016-May-29 11:32N 22°12' E 113°34'1313.3
2016-May-29 10:33N 22°18' E 113°46'1313.2
2016-May-29 09:34N 22°28' E 113°55'18 8.8
2016-May-29 07:33N 22°15' E 113°43'1817.6
2016-May-29 06:33N 22°29' E 113°55'1312.1
2016-May-29 05:30N 22°20' E 114°05'10 9.0
2016-May-29 04:26N 22°22' E 113°55'1511.8
2016-May-29 03:07N 22°13' E 113°42'5 6.5
2016-May-29 02:17N 22°10' E 113°37'2026.5
2016-May-29 01:31N 22°24' E 113°52'5 2.4
2016-May-28 23:28N 22°29' E 113°55'0 0.0
2016-May-28 22:27N 22°29' E 113°55'0 0.0
2016-May-28 21:21N 22°29' E 113°55'0 0.0
2016-May-28 20:28N 22°29' E 113°55'0 0.0
2016-May-28 19:34N 22°29' E 113°55'0 0.0
2016-May-28 18:04N 22°29' E 113°55'0 0.0
2016-May-28 17:33N 22°29' E 113°55'0 0.0
2016-May-28 16:33N 22°29' E 113°55'0 0.0
2016-May-28 15:33N 22°29' E 113°55'0 0.0
2016-May-28 14:33N 22°29' E 113°55'2316.6
2016-May-28 13:10N 22°11' E 113°38'2 2.4
2016-May-28 12:31N 22°11' E 113°37'2525.4
2016-May-28 11:33N 22°29' E 113°55'2620.2
2016-May-28 10:17N 22°11' E 113°35'7 9.4
2016-May-28 09:33N 22°13' E 113°42'2019.7
2016-May-28 08:33N 22°29' E 113°55'0 0.0
2016-May-28 06:33N 22°29' E 113°55'0 0.0
2016-May-28 05:27N 22°29' E 113°55'0 0.0
2016-May-28 04:27N 22°29' E 113°55'0 0.0
2016-May-28 03:33N 22°29' E 113°55'25 1.7
2016-May-27 13:19N 22°11' E 113°36'3 0.9
2016-May-27 10:11N 22°12' E 113°34'3 0.5
2016-May-27 04:09N 22°10' E 113°36'3 0.1
2016-May-25 13:20N 22°12' E 113°34'4 0.6
2016-May-25 06:32N 22°10' E 113°37'2 0.9
2016-May-25 04:06N 22°10' E 113°35'  
2016-May-21 13:18N 22°12' E 113°34'4 0.7
2016-May-21 07:17N 22°12' E 113°38'1 0.2
2016-May-21 04:19N 22°12' E 113°38'0 0.5
2016-May-21 03:34N 22°11' E 113°38'4 0.3
2016-May-20 13:19N 22°12' E 113°34'0 0.1
2016-May-20 10:03N 22°12' E 113°34'4 1.2
2016-May-20 06:33N 22°11' E 113°38'4 1.8
2016-May-20 04:25N 22°15' E 113°38'3 0.9
2016-May-20 01:03N 22°12' E 113°38'  

Dump ship's entire track history